createdAt,value
2022-11-09T00:00:34.737Z,13.20
2022-11-09T00:01:56.921Z,13.20
2022-11-09T00:03:19.411Z,13.20
2022-11-09T00:04:41.947Z,13.20
2022-11-09T00:06:04.090Z,13.10
2022-11-09T00:07:26.170Z,13.20
2022-11-09T00:08:48.372Z,13.10
2022-11-09T00:10:10.630Z,13.10
2022-11-09T00:11:32.856Z,13.10
2022-11-09T00:12:54.930Z,13.20
2022-11-09T00:14:17.547Z,13.10
2022-11-09T00:15:39.638Z,13.10
2022-11-09T00:17:01.795Z,13.10
2022-11-09T00:18:24.004Z,13.10
2022-11-09T00:19:46.109Z,13.10
2022-11-09T00:21:13.511Z,13.10
2022-11-09T00:22:35.678Z,13.10
2022-11-09T00:23:57.829Z,13.10
2022-11-09T00:25:19.922Z,13.10
2022-11-09T00:26:42.114Z,13.10
2022-11-09T00:28:04.570Z,13.10
2022-11-09T00:29:26.718Z,13.20
2022-11-09T00:30:48.806Z,13.20
2022-11-09T00:32:10.906Z,13.20
2022-11-09T00:33:33.916Z,13.20
2022-11-09T00:34:56.049Z,13.20
2022-11-09T00:36:19.451Z,13.10
2022-11-09T00:37:41.785Z,13.10
2022-11-09T00:39:03.914Z,13.10
2022-11-09T00:40:26.599Z,13.10
2022-11-09T00:41:48.776Z,13.10
2022-11-09T00:43:10.961Z,13.10
2022-11-09T00:44:33.362Z,13.20
2022-11-09T00:45:55.425Z,13.20
2022-11-09T00:47:18.059Z,13.20
2022-11-09T00:48:40.701Z,13.20
2022-11-09T00:50:02.989Z,13.20
2022-11-09T00:51:25.513Z,13.20
2022-11-09T00:52:48.631Z,13.20
2022-11-09T00:54:10.991Z,13.20
2022-11-09T00:55:34.368Z,13.20
2022-11-09T00:56:56.602Z,13.20
2022-11-09T00:58:18.872Z,13.20
2022-11-09T00:59:41.110Z,13.20
2022-11-09T01:01:08.960Z,13.20
2022-11-09T01:02:31.287Z,13.20
2022-11-09T01:03:53.907Z,13.20
2022-11-09T01:05:16.342Z,13.20
2022-11-09T01:06:38.579Z,13.20
2022-11-09T01:08:02.403Z,13.20
2022-11-09T01:09:24.579Z,13.20
2022-11-09T01:10:48.389Z,13.20
2022-11-09T01:12:10.659Z,13.10
2022-11-09T01:13:32.879Z,13.10
2022-11-09T01:14:55.028Z,13.10
2022-11-09T01:16:20.387Z,13.10
2022-11-09T01:17:42.635Z,13.10
2022-11-09T01:19:05.089Z,13.10
2022-11-09T01:20:27.272Z,13.10
2022-11-09T01:21:49.385Z,13.10
2022-11-09T01:23:13.432Z,13.10
2022-11-09T01:24:35.535Z,13.10
2022-11-09T01:25:59.634Z,13.10
2022-11-09T01:27:21.773Z,13.00
2022-11-09T01:28:44.363Z,13.00
2022-11-09T01:30:07.209Z,13.00
2022-11-09T01:31:29.438Z,12.90
2022-11-09T01:32:51.518Z,12.90
2022-11-09T01:34:13.783Z,12.90
2022-11-09T01:35:38.520Z,12.80
2022-11-09T01:37:00.614Z,12.80
2022-11-09T01:38:22.863Z,12.80
2022-11-09T01:39:45.021Z,12.70
2022-11-09T01:41:08.380Z,12.70
2022-11-09T01:42:30.705Z,12.70
2022-11-09T01:44:08.497Z,12.60
2022-11-09T01:45:31.119Z,12.60
2022-11-09T01:47:00.367Z,12.50
2022-11-09T01:48:31.646Z,12.50
2022-11-09T01:49:59.009Z,12.40
2022-11-09T01:51:56.742Z,12.40
2022-11-09T01:53:26.529Z,12.40
2022-11-09T01:54:53.309Z,12.40
2022-11-09T01:56:16.400Z,12.30
2022-11-09T01:57:43.320Z,12.40
2022-11-09T01:59:22.256Z,12.40
2022-11-09T02:00:48.157Z,12.30
2022-11-09T02:02:11.158Z,12.30
2022-11-09T02:03:37.795Z,12.30
2022-11-09T02:05:12.528Z,12.30
2022-11-09T02:06:35.609Z,12.30
2022-11-09T02:08:01.797Z,12.30
2022-11-09T02:10:00.776Z,12.30
2022-11-09T02:11:25.142Z,12.30
2022-11-09T02:12:48.403Z,12.30
2022-11-09T02:14:11.912Z,12.30
2022-11-09T02:15:34.772Z,12.20
2022-11-09T02:16:57.167Z,12.20
2022-11-09T02:18:20.059Z,12.20
2022-11-09T02:19:42.268Z,12.10
2022-11-09T02:21:04.589Z,12.10
2022-11-09T02:22:26.855Z,12.10
2022-11-09T02:23:49.690Z,12.10
2022-11-09T02:25:14.468Z,12.10
2022-11-09T02:26:45.509Z,12.10
2022-11-09T02:28:08.835Z,12.00
2022-11-09T02:29:37.561Z,12.00
2022-11-09T02:31:00.172Z,12.00
2022-11-09T02:32:28.743Z,12.00
2022-11-09T02:33:55.427Z,12.00
2022-11-09T02:35:17.658Z,11.90
2022-11-09T02:36:39.899Z,11.90
2022-11-09T02:38:02.111Z,11.90
2022-11-09T02:39:26.981Z,11.90
2022-11-09T02:40:52.818Z,11.80
2022-11-09T02:42:21.469Z,11.80
2022-11-09T02:43:44.018Z,11.80
2022-11-09T02:45:06.684Z,11.80
2022-11-09T02:46:36.099Z,11.70
2022-11-09T02:47:58.274Z,11.70
2022-11-09T02:49:20.672Z,11.70
2022-11-09T02:50:42.779Z,11.70
2022-11-09T02:52:05.037Z,11.70
2022-11-09T02:53:27.218Z,11.70
2022-11-09T02:54:49.387Z,11.70
2022-11-09T02:56:11.515Z,11.70
2022-11-09T02:57:33.591Z,11.70
2022-11-09T02:58:55.782Z,11.70
2022-11-09T03:00:17.964Z,11.60
2022-11-09T03:01:40.168Z,11.60
2022-11-09T03:03:02.782Z,11.70
2022-11-09T03:04:25.142Z,11.70
2022-11-09T03:05:50.195Z,11.70
2022-11-09T03:07:12.557Z,11.70
2022-11-09T03:08:34.810Z,11.70
2022-11-09T03:09:56.981Z,11.70
2022-11-09T03:11:19.048Z,11.70
2022-11-09T03:12:41.429Z,11.80
2022-11-09T03:14:04.162Z,11.80
2022-11-09T03:15:26.332Z,11.80
2022-11-09T03:16:50.817Z,11.80
2022-11-09T03:18:13.313Z,11.80
2022-11-09T03:19:35.430Z,11.80
2022-11-09T03:21:02.755Z,11.80
2022-11-09T03:22:24.923Z,11.90
2022-11-09T03:23:47.039Z,11.90
2022-11-09T03:25:09.502Z,11.90
2022-11-09T03:26:31.772Z,11.90
2022-11-09T03:28:05.354Z,11.80
2022-11-09T03:29:27.553Z,11.90
2022-11-09T03:30:49.831Z,11.90
2022-11-09T03:32:12.127Z,11.90
2022-11-09T03:33:34.663Z,11.90
2022-11-09T03:34:56.891Z,12.00
2022-11-09T03:36:18.875Z,12.00
2022-11-09T03:37:40.975Z,12.00
2022-11-09T03:39:03.483Z,12.10
2022-11-09T03:40:25.488Z,12.10
2022-11-09T03:41:47.617Z,12.10
2022-11-09T03:43:09.908Z,12.20
2022-11-09T03:44:31.936Z,12.20
2022-11-09T03:45:54.285Z,12.20
2022-11-09T03:47:16.293Z,12.20
2022-11-09T03:48:38.395Z,12.20
2022-11-09T03:50:00.407Z,12.20
2022-11-09T03:51:22.401Z,12.10
2022-11-09T03:52:46.318Z,12.10
2022-11-09T03:54:08.413Z,12.10
2022-11-09T03:55:30.838Z,12.10
2022-11-09T03:56:52.822Z,12.20
2022-11-09T03:58:14.884Z,12.20
2022-11-09T03:59:36.963Z,12.20
2022-11-09T04:00:58.972Z,12.20
2022-11-09T04:02:20.961Z,12.20
2022-11-09T04:03:42.965Z,12.20
2022-11-09T04:05:05.948Z,12.20
2022-11-09T04:06:27.960Z,12.20
2022-11-09T04:07:54.981Z,12.20
2022-11-09T04:09:16.985Z,12.20
2022-11-09T04:10:38.953Z,12.20
2022-11-09T04:12:01.027Z,12.30
2022-11-09T04:13:23.052Z,12.30
2022-11-09T04:14:45.075Z,12.30
2022-11-09T04:16:07.439Z,12.30
2022-11-09T04:17:29.499Z,12.30
2022-11-09T04:18:51.538Z,12.30
2022-11-09T04:20:13.788Z,12.30
2022-11-09T04:21:35.813Z,12.30
2022-11-09T04:23:00.380Z,12.30
2022-11-09T04:24:22.383Z,12.30
2022-11-09T04:25:44.437Z,12.30
2022-11-09T04:27:07.174Z,12.30
2022-11-09T04:28:29.233Z,12.30
2022-11-09T04:29:51.336Z,12.30
2022-11-09T04:31:13.340Z,12.30
2022-11-09T04:32:35.312Z,12.30
2022-11-09T04:33:57.443Z,12.30
2022-11-09T04:35:19.515Z,12.30
2022-11-09T04:36:41.520Z,12.30
2022-11-09T04:38:06.177Z,12.30
2022-11-09T04:39:28.193Z,12.30
2022-11-09T04:40:50.212Z,12.30
2022-11-09T04:42:12.200Z,12.30
2022-11-09T04:43:34.886Z,12.30
2022-11-09T04:44:56.901Z,12.20
2022-11-09T04:46:18.956Z,12.20
2022-11-09T04:47:40.980Z,12.20
2022-11-09T04:49:03.021Z,12.20
2022-11-09T04:50:25.719Z,12.20
2022-11-09T04:51:47.793Z,12.20
2022-11-09T04:53:12.622Z,12.20
2022-11-09T04:54:34.755Z,12.20
2022-11-09T04:55:57.887Z,12.20
2022-11-09T04:57:19.885Z,12.20
2022-11-09T04:58:42.248Z,12.20
2022-11-09T05:00:04.766Z,12.20
2022-11-09T05:01:26.811Z,12.20
2022-11-09T05:02:48.804Z,12.20
2022-11-09T05:04:10.984Z,12.30
2022-11-09T05:05:34.871Z,12.30
2022-11-09T05:06:56.933Z,12.30
2022-11-09T05:08:18.986Z,12.30
2022-11-09T05:09:41.202Z,12.30
2022-11-09T05:11:03.198Z,12.30
2022-11-09T05:12:25.230Z,12.30
2022-11-09T05:13:47.660Z,12.40
2022-11-09T05:15:10.104Z,12.40
2022-11-09T05:16:32.206Z,12.40
2022-11-09T05:17:54.529Z,12.40
2022-11-09T05:19:16.701Z,12.40
2022-11-09T05:20:38.820Z,12.40
2022-11-09T05:22:21.009Z,12.40
2022-11-09T05:24:01.490Z,12.40
2022-11-09T05:25:23.667Z,12.50
2022-11-09T05:26:45.674Z,12.50
2022-11-09T05:28:09.670Z,12.50
2022-11-09T05:29:31.898Z,12.50
2022-11-09T05:30:54.055Z,12.50
2022-11-09T05:32:16.179Z,12.50
2022-11-09T05:33:38.179Z,12.50
2022-11-09T05:35:00.189Z,12.50
2022-11-09T05:36:22.817Z,12.50
2022-11-09T05:37:49.626Z,12.50
2022-11-09T05:39:11.940Z,12.60
2022-11-09T05:40:34.811Z,12.60
2022-11-09T05:41:56.944Z,12.60
2022-11-09T05:43:19.892Z,12.60
2022-11-09T05:44:42.195Z,12.60
2022-11-09T05:46:06.781Z,12.60
2022-11-09T05:47:28.976Z,12.60
2022-11-09T05:48:50.970Z,12.60
2022-11-09T05:50:15.922Z,12.60
2022-11-09T05:51:37.956Z,12.60
2022-11-09T05:53:00.533Z,12.60
2022-11-09T05:54:22.735Z,12.60
2022-11-09T05:55:44.905Z,12.70
2022-11-09T05:57:07.303Z,12.70
2022-11-09T05:58:29.363Z,12.70
2022-11-09T05:59:51.435Z,12.70
2022-11-09T06:01:16.769Z,12.70
2022-11-09T06:02:38.785Z,12.70
2022-11-09T06:04:00.909Z,12.70
2022-11-09T06:05:22.912Z,12.70
2022-11-09T06:06:44.944Z,12.70
2022-11-09T06:08:13.613Z,12.70
2022-11-09T06:09:35.632Z,12.70
2022-11-09T06:10:59.765Z,12.70
2022-11-09T06:12:21.837Z,12.70
2022-11-09T06:13:43.850Z,12.70
2022-11-09T06:15:06.497Z,12.70
2022-11-09T06:16:28.558Z,12.70
2022-11-09T06:17:54.639Z,12.70
2022-11-09T06:19:16.673Z,12.60
2022-11-09T06:20:38.654Z,12.70
2022-11-09T06:22:00.675Z,12.70
2022-11-09T06:23:25.848Z,12.70
2022-11-09T06:24:47.936Z,12.70
2022-11-09T06:26:11.359Z,12.70
2022-11-09T06:27:33.404Z,12.70
2022-11-09T06:28:55.423Z,12.70
2022-11-09T06:30:17.457Z,12.70
2022-11-09T06:31:39.477Z,12.70
2022-11-09T06:33:02.539Z,12.70
2022-11-09T06:34:24.601Z,12.70
2022-11-09T06:35:47.561Z,12.70
2022-11-09T06:37:11.918Z,12.70
2022-11-09T06:38:33.925Z,12.70
2022-11-09T06:39:55.961Z,12.70
2022-11-09T06:41:18.281Z,12.80
2022-11-09T06:42:40.374Z,12.80
2022-11-09T06:44:02.592Z,12.80
2022-11-09T06:45:25.106Z,12.80
2022-11-09T06:46:47.135Z,12.80
2022-11-09T06:48:10.764Z,12.80
2022-11-09T06:49:32.784Z,12.90
2022-11-09T06:50:54.836Z,12.90
2022-11-09T06:52:16.846Z,12.90
2022-11-09T06:53:41.304Z,12.90
2022-11-09T06:55:03.418Z,12.90
2022-11-09T06:56:25.461Z,12.90
2022-11-09T06:57:47.480Z,12.90
2022-11-09T06:59:09.513Z,12.90
2022-11-09T07:00:31.620Z,12.90
2022-11-09T07:01:57.552Z,12.90
2022-11-09T07:03:23.535Z,12.90
2022-11-09T07:04:45.992Z,12.90
2022-11-09T07:06:10.656Z,13.00
2022-11-09T07:07:32.655Z,13.00
2022-11-09T07:08:57.738Z,13.00
2022-11-09T07:10:19.932Z,13.00
2022-11-09T07:11:41.942Z,13.00
2022-11-09T07:13:04.549Z,13.00
2022-11-09T07:14:26.635Z,13.00
2022-11-09T07:15:54.473Z,13.00
2022-11-09T07:17:16.587Z,13.00
2022-11-09T07:18:38.733Z,13.00
2022-11-09T07:20:01.325Z,13.00
2022-11-09T07:21:23.438Z,13.00
2022-11-09T07:22:49.795Z,13.00
2022-11-09T07:24:11.809Z,13.00
2022-11-09T07:25:34.512Z,13.00
2022-11-09T07:26:56.532Z,13.00
2022-11-09T07:28:18.719Z,13.00
2022-11-09T07:29:40.734Z,13.00
2022-11-09T07:31:02.883Z,13.00
2022-11-09T07:32:53.812Z,12.90
2022-11-09T07:34:07.009Z,12.90
2022-11-09T07:35:29.334Z,12.90
2022-11-09T07:36:54.164Z,12.90
2022-11-09T07:38:16.916Z,12.90
2022-11-09T07:39:38.925Z,13.00
2022-11-09T07:41:01.904Z,13.00
2022-11-09T07:42:25.421Z,13.00
2022-11-09T07:43:47.448Z,13.00
2022-11-09T07:45:09.904Z,13.00
2022-11-09T07:46:32.533Z,13.00
2022-11-09T07:48:05.353Z,13.00
2022-11-09T07:49:27.439Z,13.00
2022-11-09T07:50:49.965Z,13.00
2022-11-09T07:52:12.267Z,13.00
2022-11-09T07:53:34.515Z,13.10
2022-11-09T07:54:56.559Z,13.10
2022-11-09T07:56:18.666Z,13.10
2022-11-09T07:57:40.682Z,13.10
2022-11-09T07:59:03.332Z,13.10
2022-11-09T08:00:26.846Z,13.10
2022-11-09T08:01:49.043Z,13.10
2022-11-09T08:03:11.501Z,13.20
2022-11-09T08:04:33.484Z,13.20
2022-11-09T08:05:57.511Z,13.20
2022-11-09T08:07:19.474Z,13.20
2022-11-09T08:08:41.462Z,13.20
2022-11-09T08:10:03.674Z,13.30
2022-11-09T08:11:26.565Z,13.30
2022-11-09T08:12:59.586Z,13.30
2022-11-09T08:14:21.756Z,13.30
2022-11-09T08:15:43.951Z,13.30
2022-11-09T08:17:06.032Z,13.40
2022-11-09T08:18:28.131Z,13.40
2022-11-09T08:19:50.150Z,13.40
2022-11-09T08:21:12.189Z,13.40
2022-11-09T08:22:44.265Z,13.40
2022-11-09T08:24:06.487Z,13.50
2022-11-09T08:25:28.704Z,13.50
2022-11-09T08:26:50.734Z,13.50
2022-11-09T08:28:15.015Z,13.60
2022-11-09T08:29:37.201Z,13.60
2022-11-09T08:31:02.745Z,13.60
2022-11-09T08:32:24.767Z,13.60
2022-11-09T08:33:46.969Z,13.60
2022-11-09T08:35:10.914Z,13.60
2022-11-09T08:36:33.809Z,13.60
2022-11-09T08:37:56.592Z,13.60
2022-11-09T08:39:18.696Z,13.70
2022-11-09T08:40:40.768Z,13.70
2022-11-09T08:42:02.792Z,13.80
2022-11-09T08:43:25.333Z,13.80
2022-11-09T08:44:47.350Z,13.90
2022-11-09T08:46:09.415Z,13.90
2022-11-09T08:47:32.208Z,14.00
2022-11-09T08:48:54.215Z,14.00
2022-11-09T08:50:16.714Z,14.00
2022-11-09T08:51:38.759Z,14.10
2022-11-09T08:53:02.010Z,14.20
2022-11-09T08:54:24.196Z,14.20
2022-11-09T08:55:49.469Z,14.20
2022-11-09T08:57:12.172Z,14.20
2022-11-09T08:58:35.130Z,14.20
2022-11-09T08:59:57.209Z,14.20
2022-11-09T09:01:19.437Z,14.20
2022-11-09T09:02:41.813Z,14.20
2022-11-09T09:04:03.778Z,14.20
2022-11-09T09:05:26.657Z,14.20
2022-11-09T09:06:48.703Z,14.20
2022-11-09T09:08:12.842Z,14.20
2022-11-09T09:09:35.222Z,14.30
2022-11-09T09:10:57.274Z,14.30
2022-11-09T09:12:21.077Z,14.40
2022-11-09T09:13:43.808Z,14.40
2022-11-09T09:15:06.431Z,14.50
2022-11-09T09:16:29.049Z,14.60
2022-11-09T09:17:51.254Z,14.70
2022-11-09T09:19:13.244Z,14.80
2022-11-09T09:20:35.362Z,14.90
2022-11-09T09:21:57.546Z,15.10
2022-11-09T09:23:19.550Z,15.30
2022-11-09T09:24:41.572Z,15.60
2022-11-09T09:26:04.296Z,16.00
2022-11-09T09:27:26.710Z,16.40
2022-11-09T09:28:48.768Z,16.60
2022-11-09T09:30:11.370Z,16.80
2022-11-09T09:31:33.357Z,17.10
2022-11-09T09:33:01.490Z,17.30
2022-11-09T09:34:23.550Z,17.50
2022-11-09T09:35:45.561Z,17.70
2022-11-09T09:37:07.626Z,17.90
2022-11-09T09:38:30.048Z,18.00
2022-11-09T09:39:52.130Z,17.90
2022-11-09T09:41:39.205Z,17.70
2022-11-09T09:43:01.423Z,17.30
2022-11-09T09:44:58.950Z,16.90
2022-11-09T09:46:40.493Z,16.50
2022-11-09T09:48:24.521Z,16.10
2022-11-09T09:49:56.316Z,16.00
2022-11-09T09:51:37.554Z,15.90
2022-11-09T09:53:22.636Z,15.90
2022-11-09T09:54:52.142Z,15.90
2022-11-09T09:56:20.935Z,16.00
2022-11-09T09:57:46.848Z,16.10
2022-11-09T09:59:33.337Z,16.20
2022-11-09T10:01:12.117Z,16.20
2022-11-09T10:02:37.823Z,16.30
2022-11-09T10:04:00.052Z,16.40
2022-11-09T10:05:29.712Z,16.50
2022-11-09T10:07:01.445Z,16.60
2022-11-09T10:08:50.084Z,16.70
2022-11-09T10:10:39.977Z,16.70
2022-11-09T10:12:15.352Z,16.80
2022-11-09T10:13:49.489Z,17.20
2022-11-09T10:15:44.151Z,17.60
2022-11-09T10:17:22.378Z,18.10
2022-11-09T10:19:22.489Z,18.40
2022-11-09T10:21:03.125Z,18.50
2022-11-09T10:23:11.793Z,18.50
2022-11-09T10:25:18.945Z,18.80
2022-11-09T10:26:36.904Z,19.20
2022-11-09T10:28:13.080Z,19.60
2022-11-09T10:29:41.668Z,19.90
2022-11-09T10:31:14.332Z,19.90
2022-11-09T10:32:36.838Z,20.10
2022-11-09T10:34:14.277Z,20.30
2022-11-09T10:35:46.387Z,20.50
2022-11-09T10:37:20.701Z,20.60
2022-11-09T10:38:47.037Z,20.50
2022-11-09T10:40:16.781Z,20.20
2022-11-09T10:41:41.542Z,19.90
2022-11-09T10:43:10.347Z,19.80
2022-11-09T10:44:32.378Z,19.60
2022-11-09T10:46:05.957Z,19.40
2022-11-09T10:47:27.991Z,19.20
2022-11-09T10:48:50.517Z,19.00
2022-11-09T10:50:22.158Z,18.70
2022-11-09T10:51:48.131Z,18.60
2022-11-09T10:53:10.916Z,18.50
2022-11-09T10:54:38.092Z,18.40
2022-11-09T10:56:21.153Z,18.40
2022-11-09T10:58:01.110Z,18.20
2022-11-09T10:59:46.719Z,18.10
2022-11-09T11:01:17.708Z,17.90
2022-11-09T11:02:42.780Z,17.70
2022-11-09T11:04:21.263Z,17.70
2022-11-09T11:05:43.375Z,17.90
2022-11-09T11:07:21.149Z,18.10
2022-11-09T11:08:49.109Z,18.30
2022-11-09T11:10:14.799Z,18.60
2022-11-09T11:11:38.964Z,18.60
2022-11-09T11:13:00.982Z,18.60
2022-11-09T11:14:34.900Z,18.50
2022-11-09T11:15:58.571Z,18.50
2022-11-09T11:17:36.267Z,18.60
2022-11-09T11:18:58.932Z,18.80
2022-11-09T11:20:35.527Z,19.10
2022-11-09T11:22:13.962Z,19.20
2022-11-09T11:23:36.994Z,19.20
2022-11-09T11:25:00.878Z,19.20
2022-11-09T11:26:40.190Z,19.20
2022-11-09T11:28:23.440Z,19.20
2022-11-09T11:30:01.600Z,19.30
2022-11-09T11:31:23.728Z,19.30
2022-11-09T11:32:50.439Z,19.20
2022-11-09T11:34:32.111Z,19.00
2022-11-09T11:36:04.619Z,18.90
2022-11-09T11:37:45.144Z,18.60
2022-11-09T11:39:40.643Z,18.40
2022-11-09T11:41:40.057Z,18.30
2022-11-09T11:43:20.607Z,18.10
2022-11-09T11:45:38.406Z,18.00
2022-11-09T11:47:28.503Z,18.00
2022-11-09T11:49:09.235Z,17.90
2022-11-09T11:50:56.501Z,17.90
2022-11-09T11:52:58.412Z,17.90
2022-11-09T11:54:41.092Z,17.90
2022-11-09T11:56:20.524Z,17.90
2022-11-09T11:58:00.528Z,17.90
2022-11-09T11:59:35.978Z,17.90
2022-11-09T12:01:29.087Z,17.80
2022-11-09T12:03:14.333Z,17.70
2022-11-09T12:04:51.190Z,17.60
2022-11-09T12:06:28.219Z,17.60
2022-11-09T12:08:07.059Z,17.50
2022-11-09T12:09:47.589Z,17.50
2022-11-09T12:11:31.142Z,17.40
2022-11-09T12:13:04.322Z,17.40
2022-11-09T12:14:51.537Z,17.40
2022-11-09T12:16:26.215Z,17.50
2022-11-09T12:17:57.128Z,17.50
2022-11-09T12:19:41.269Z,17.50
2022-11-09T12:21:17.020Z,17.50
2022-11-09T12:22:45.563Z,17.50
2022-11-09T12:24:35.145Z,17.50
2022-11-09T12:26:08.507Z,17.40
2022-11-09T12:28:06.378Z,17.40
2022-11-09T12:29:37.072Z,17.40
2022-11-09T12:31:24.885Z,17.40
2022-11-09T12:33:04.666Z,17.30
2022-11-09T12:34:34.755Z,17.30
2022-11-09T12:36:05.973Z,17.20
2022-11-09T12:37:35.376Z,17.20
2022-11-09T12:39:04.338Z,17.10
2022-11-09T12:40:31.174Z,17.10
2022-11-09T12:42:00.622Z,17.00
2022-11-09T12:43:49.657Z,17.00
2022-11-09T12:45:17.911Z,17.00
2022-11-09T12:46:46.619Z,17.00
2022-11-09T12:48:31.318Z,17.00
2022-11-09T12:49:55.913Z,16.90
2022-11-09T12:51:19.389Z,17.00
2022-11-09T12:52:43.869Z,16.90
2022-11-09T12:54:12.163Z,16.90
2022-11-09T12:55:52.285Z,16.90
2022-11-09T12:57:22.744Z,16.90
2022-11-09T12:58:45.194Z,16.80
2022-11-09T13:00:08.068Z,16.70
2022-11-09T13:01:33.117Z,16.70
2022-11-09T13:02:58.523Z,16.70
2022-11-09T13:04:22.702Z,16.70
2022-11-09T13:05:47.633Z,16.70
2022-11-09T13:07:09.822Z,16.70
2022-11-09T13:08:32.585Z,16.60
2022-11-09T13:09:57.417Z,16.60
2022-11-09T13:11:41.724Z,16.60
2022-11-09T13:13:14.935Z,16.60
2022-11-09T13:14:38.816Z,16.60
2022-11-09T13:16:20.582Z,16.60
2022-11-09T13:17:52.094Z,16.60
2022-11-09T13:19:34.122Z,16.60
2022-11-09T13:20:57.812Z,16.70
2022-11-09T13:22:25.660Z,16.60
2022-11-09T13:24:01.169Z,16.70
2022-11-09T13:25:50.995Z,16.70
2022-11-09T13:27:33.070Z,16.70
2022-11-09T13:29:26.186Z,16.70
2022-11-09T13:30:48.335Z,16.70
2022-11-09T13:32:13.881Z,16.60
2022-11-09T13:33:36.205Z,16.60
2022-11-09T13:35:00.418Z,16.60
2022-11-09T13:36:22.741Z,16.60
2022-11-09T13:37:49.232Z,16.50
2022-11-09T13:39:29.260Z,16.50
2022-11-09T13:40:55.464Z,16.50
2022-11-09T13:42:57.337Z,16.50
2022-11-09T13:44:32.881Z,16.50
2022-11-09T13:46:23.530Z,16.40
2022-11-09T13:47:52.775Z,16.40
2022-11-09T13:49:36.885Z,16.40
2022-11-09T13:51:14.982Z,16.40
2022-11-09T13:53:01.055Z,16.40
2022-11-09T13:54:35.167Z,16.40
2022-11-09T13:55:57.589Z,16.40
2022-11-09T13:57:21.003Z,16.40
2022-11-09T13:58:43.376Z,16.30
2022-11-09T14:00:07.500Z,16.30
2022-11-09T14:01:34.293Z,16.30
2022-11-09T14:03:04.441Z,16.20
2022-11-09T14:04:30.874Z,16.20
2022-11-09T14:06:02.915Z,16.20
2022-11-09T14:07:26.279Z,16.20
2022-11-09T14:08:48.928Z,16.10
2022-11-09T14:10:34.478Z,16.00
2022-11-09T14:12:18.016Z,16.00
2022-11-09T14:13:50.372Z,16.00
2022-11-09T14:15:40.448Z,16.00
2022-11-09T14:17:22.198Z,16.00
2022-11-09T14:19:04.297Z,16.00
2022-11-09T14:21:01.673Z,15.90
2022-11-09T14:22:23.932Z,15.90
2022-11-09T14:23:46.144Z,15.90
2022-11-09T14:25:16.497Z,15.80
2022-11-09T14:26:38.559Z,15.80
2022-11-09T14:28:00.669Z,15.80
2022-11-09T14:29:25.303Z,15.80
2022-11-09T14:30:47.421Z,15.70
2022-11-09T14:32:36.210Z,15.70
2022-11-09T14:34:04.041Z,15.70
2022-11-09T14:35:30.793Z,15.70
2022-11-09T14:36:53.277Z,15.70
2022-11-09T14:38:20.389Z,15.60
2022-11-09T14:39:47.066Z,15.60
2022-11-09T14:41:26.545Z,15.60
2022-11-09T14:42:55.305Z,15.60
2022-11-09T14:44:43.918Z,15.60
2022-11-09T14:46:14.392Z,15.60
2022-11-09T14:47:39.488Z,15.50
2022-11-09T14:49:04.040Z,15.50
2022-11-09T14:50:30.498Z,15.50
2022-11-09T14:51:53.072Z,15.50
2022-11-09T14:53:28.511Z,15.50
2022-11-09T14:54:50.953Z,15.50
2022-11-09T14:56:17.148Z,15.40
2022-11-09T14:57:39.412Z,15.50
2022-11-09T14:59:04.379Z,15.40
2022-11-09T15:00:31.216Z,15.40
2022-11-09T15:02:09.110Z,15.30
2022-11-09T15:03:31.237Z,15.30
2022-11-09T15:05:03.493Z,15.30
2022-11-09T15:06:26.168Z,15.20
2022-11-09T15:07:48.663Z,15.20
2022-11-09T15:09:16.969Z,15.20
2022-11-09T15:10:39.490Z,15.20
2022-11-09T15:12:02.488Z,15.20
2022-11-09T15:13:37.479Z,15.10
2022-11-09T15:15:03.062Z,15.20
2022-11-09T15:16:29.226Z,15.10
2022-11-09T15:17:51.770Z,15.10
2022-11-09T15:19:48.343Z,15.10
2022-11-09T15:21:25.543Z,15.00
2022-11-09T15:23:01.872Z,15.00
2022-11-09T15:24:26.672Z,15.00
2022-11-09T15:25:48.995Z,15.00
2022-11-09T15:27:34.545Z,14.90
2022-11-09T15:28:56.685Z,14.90
2022-11-09T15:30:30.654Z,14.90
2022-11-09T15:32:10.513Z,14.90
2022-11-09T15:33:35.330Z,14.90
2022-11-09T15:34:59.293Z,14.90
2022-11-09T15:36:24.440Z,14.80
2022-11-09T15:37:51.989Z,14.80
2022-11-09T15:39:19.333Z,14.80
2022-11-09T15:40:41.456Z,14.70
2022-11-09T15:42:03.723Z,14.70
2022-11-09T15:43:27.284Z,14.80
2022-11-09T15:44:54.918Z,14.70
2022-11-09T15:46:21.087Z,14.70
2022-11-09T15:47:51.487Z,14.70
2022-11-09T15:49:26.527Z,14.70
2022-11-09T15:50:48.728Z,14.70
2022-11-09T15:52:12.546Z,14.60
2022-11-09T15:53:34.606Z,14.60
2022-11-09T15:54:57.028Z,14.60
2022-11-09T15:56:23.267Z,14.60
2022-11-09T15:57:45.383Z,14.60
2022-11-09T15:59:12.593Z,14.60
2022-11-09T16:00:34.731Z,14.50
2022-11-09T16:01:56.828Z,14.50
2022-11-09T16:03:18.950Z,14.50
2022-11-09T16:04:41.587Z,14.40
2022-11-09T16:06:03.706Z,14.40
2022-11-09T16:07:25.909Z,14.40
2022-11-09T16:08:52.046Z,14.30
2022-11-09T16:10:14.794Z,14.30
2022-11-09T16:11:36.933Z,14.20
2022-11-09T16:12:59.043Z,14.20
2022-11-09T16:14:22.124Z,14.20
2022-11-09T16:15:44.214Z,14.10
2022-11-09T16:17:06.397Z,14.10
2022-11-09T16:18:28.988Z,14.00
2022-11-09T16:19:52.260Z,14.00
2022-11-09T16:21:16.459Z,13.90
2022-11-09T16:22:38.614Z,13.90
2022-11-09T16:24:00.718Z,13.80
2022-11-09T16:25:25.497Z,13.80
2022-11-09T16:26:47.917Z,13.70
2022-11-09T16:28:10.464Z,13.70
2022-11-09T16:29:33.647Z,13.70
2022-11-09T16:30:55.828Z,13.70
2022-11-09T16:32:17.904Z,13.60
2022-11-09T16:33:41.376Z,13.60
2022-11-09T16:35:29.344Z,13.50
2022-11-09T16:36:52.301Z,13.50
2022-11-09T16:38:17.975Z,13.50
2022-11-09T16:39:40.336Z,13.40
2022-11-09T16:41:04.125Z,13.40
2022-11-09T16:42:26.744Z,13.40
2022-11-09T16:43:51.160Z,13.40
2022-11-09T16:45:15.475Z,13.40
2022-11-09T16:46:37.624Z,13.40
2022-11-09T16:48:02.369Z,13.40
2022-11-09T16:49:24.440Z,13.40
2022-11-09T16:50:48.658Z,13.50
2022-11-09T16:52:10.789Z,13.50
2022-11-09T16:53:33.075Z,13.50
2022-11-09T16:54:55.234Z,13.50
2022-11-09T16:56:17.504Z,13.50
2022-11-09T16:57:39.831Z,13.50
2022-11-09T16:59:02.025Z,13.50
2022-11-09T17:00:27.707Z,13.50
2022-11-09T17:02:00.442Z,13.60
2022-11-09T17:03:22.730Z,13.60
2022-11-09T17:04:44.959Z,13.60
2022-11-09T17:06:11.038Z,13.60
2022-11-09T17:07:42.050Z,13.60
2022-11-09T17:09:04.660Z,13.60
2022-11-09T17:10:27.275Z,13.60
2022-11-09T17:11:49.515Z,13.60
2022-11-09T17:13:12.747Z,13.60
2022-11-09T17:14:34.953Z,13.60
2022-11-09T17:15:57.018Z,13.60
2022-11-09T17:17:22.633Z,13.50
2022-11-09T17:18:45.092Z,13.50
2022-11-09T17:20:07.797Z,13.50
2022-11-09T17:21:30.239Z,13.50
2022-11-09T17:22:52.640Z,13.50
2022-11-09T17:24:14.938Z,13.50
2022-11-09T17:25:37.695Z,13.40
2022-11-09T17:27:00.099Z,13.40
2022-11-09T17:28:23.440Z,13.40
2022-11-09T17:29:46.934Z,13.40
2022-11-09T17:31:23.265Z,13.30
2022-11-09T17:32:48.036Z,13.30
2022-11-09T17:34:12.212Z,13.20
2022-11-09T17:35:36.683Z,13.20
2022-11-09T17:37:04.316Z,13.10
2022-11-09T17:38:29.934Z,13.10
2022-11-09T17:39:52.183Z,13.10
2022-11-09T17:41:17.730Z,13.00
2022-11-09T17:42:39.997Z,13.00
2022-11-09T17:44:02.178Z,13.00
2022-11-09T17:45:24.288Z,12.90
2022-11-09T17:46:46.476Z,12.90
2022-11-09T17:48:08.598Z,12.90
2022-11-09T17:49:31.334Z,12.80
2022-11-09T17:50:53.756Z,12.80
2022-11-09T17:52:15.815Z,12.70
2022-11-09T17:53:38.283Z,12.70
2022-11-09T17:55:00.516Z,12.70
2022-11-09T17:56:22.614Z,12.60
2022-11-09T17:57:44.763Z,12.60
2022-11-09T17:59:07.073Z,12.60
2022-11-09T18:00:29.220Z,12.60
2022-11-09T18:01:51.354Z,12.60
2022-11-09T18:03:13.502Z,12.50
2022-11-09T18:04:37.496Z,12.50
2022-11-09T18:05:59.592Z,12.50
2022-11-09T18:07:21.736Z,12.50
2022-11-09T18:08:45.131Z,12.40
2022-11-09T18:10:07.523Z,12.40
2022-11-09T18:11:33.658Z,12.40
2022-11-09T18:12:55.750Z,12.40
2022-11-09T18:14:18.027Z,12.30
2022-11-09T18:15:40.481Z,12.40
2022-11-09T18:17:02.637Z,12.30
2022-11-09T18:18:25.357Z,12.30
2022-11-09T18:19:47.533Z,12.30
2022-11-09T18:21:11.857Z,12.30
2022-11-09T18:22:33.925Z,12.20
2022-11-09T18:23:56.529Z,12.20
2022-11-09T18:25:18.965Z,12.20
2022-11-09T18:26:41.093Z,12.20
2022-11-09T18:28:03.267Z,12.20
2022-11-09T18:29:25.523Z,12.20
2022-11-09T18:30:47.853Z,12.10
2022-11-09T18:32:10.000Z,12.10
2022-11-09T18:33:32.286Z,12.10